createdAt,value
2018-04-10T00:02:03.096Z,14.80
2018-04-10T00:06:05.794Z,14.80
2018-04-10T00:10:08.933Z,14.70
2018-04-10T00:14:11.587Z,14.60
2018-04-10T00:18:14.252Z,14.60
2018-04-10T00:22:17.682Z,14.40
2018-04-10T00:26:21.125Z,14.40
2018-04-10T00:30:23.787Z,14.30
2018-04-10T00:34:27.219Z,14.30
2018-04-10T00:38:29.895Z,14.20
2018-04-10T00:42:32.561Z,14.20
2018-04-10T00:46:35.246Z,14.20
2018-04-10T00:50:37.915Z,14.10
2018-04-10T00:54:41.345Z,14.00
2018-04-10T00:58:44.016Z,13.90
2018-04-10T01:02:47.468Z,13.90
2018-04-10T01:06:50.132Z,13.90
2018-04-10T01:10:52.783Z,13.80
2018-04-10T01:14:55.456Z,13.70
2018-04-10T01:18:58.908Z,13.60
2018-04-10T01:23:01.583Z,13.50
2018-04-10T01:27:05.010Z,13.50
2018-04-10T01:31:07.728Z,13.40
2018-04-10T01:35:10.388Z,13.40
2018-04-10T01:39:13.057Z,13.30
2018-04-10T01:43:16.485Z,13.30
2018-04-10T01:47:19.149Z,13.20
2018-04-10T01:51:22.585Z,13.30
2018-04-10T01:55:25.263Z,13.20
2018-04-10T01:59:27.940Z,13.30
2018-04-10T02:03:31.380Z,13.20
2018-04-10T02:07:34.046Z,13.20
2018-04-10T02:11:36.713Z,13.20
2018-04-10T02:15:40.152Z,13.20
2018-04-10T02:19:42.815Z,13.10
2018-04-10T02:23:46.259Z,13.20
2018-04-10T02:27:48.955Z,13.10
2018-04-10T02:31:51.671Z,13.20
2018-04-10T02:35:54.447Z,13.20
2018-04-10T02:39:57.128Z,13.20
2018-04-10T02:43:59.794Z,13.20
2018-04-10T02:48:02.469Z,13.10
2018-04-10T02:52:05.159Z,13.10
2018-04-10T02:56:08.567Z,13.00
2018-04-10T03:00:12.044Z,13.00
2018-04-10T03:04:14.756Z,12.90
2018-04-10T03:08:18.159Z,12.90
2018-04-10T03:12:21.574Z,12.80
2018-04-10T03:16:24.949Z,12.70
2018-04-10T03:20:27.609Z,12.70
2018-04-10T03:24:30.253Z,12.70
2018-04-10T03:28:33.671Z,12.60
2018-04-10T03:32:36.315Z,12.60
2018-04-10T03:36:38.973Z,12.60
2018-04-10T03:40:41.609Z,12.60
2018-04-10T03:44:44.347Z,12.50
2018-04-10T03:48:47.003Z,12.50
2018-04-10T03:52:50.434Z,12.50
2018-04-10T03:56:53.089Z,12.40
2018-04-10T04:00:56.499Z,12.40
2018-04-10T04:04:59.143Z,12.30
2018-04-10T04:09:01.787Z,12.30
2018-04-10T04:13:05.175Z,12.30
2018-04-10T04:17:20.419Z,12.20
2018-04-10T04:21:34.968Z,12.20
2018-04-10T04:25:37.622Z,12.20
2018-04-10T04:29:41.039Z,12.20
2018-04-10T04:33:44.457Z,12.20
2018-04-10T04:37:47.105Z,12.10
2018-04-10T04:41:49.750Z,12.10
2018-04-10T04:45:52.500Z,12.10
2018-04-10T04:49:55.919Z,12.10
2018-04-10T04:53:59.294Z,12.00
2018-04-10T04:58:01.966Z,12.00
2018-04-10T05:02:04.634Z,12.00
2018-04-10T05:06:07.301Z,12.00
2018-04-10T05:10:09.944Z,12.00
2018-04-10T05:14:13.348Z,12.00
2018-04-10T05:18:16.010Z,11.90
2018-04-10T05:22:18.656Z,11.90
2018-04-10T05:26:22.069Z,11.90
2018-04-10T05:30:25.451Z,11.90
2018-04-10T05:34:28.877Z,11.90
2018-04-10T05:38:32.288Z,11.90
2018-04-10T05:42:35.764Z,11.90
2018-04-10T05:46:38.413Z,11.90
2018-04-10T05:50:41.027Z,12.00
2018-04-10T05:54:43.683Z,12.00
2018-04-10T05:58:46.339Z,12.10
2018-04-10T06:02:49.004Z,12.20
2018-04-10T06:06:51.697Z,12.30
2018-04-10T06:10:54.300Z,12.40
2018-04-10T06:14:57.714Z,12.50
2018-04-10T06:19:01.129Z,12.60
2018-04-10T06:23:04.114Z,12.60
2018-04-10T06:27:06.847Z,12.70
2018-04-10T06:31:09.586Z,12.80
2018-04-10T06:35:12.292Z,12.90
2018-04-10T06:39:15.708Z,13.10
2018-04-10T06:43:18.390Z,13.10
2018-04-10T06:47:21.106Z,13.30
2018-04-10T06:51:23.811Z,13.50
2018-04-10T06:55:26.454Z,13.60
2018-04-10T06:59:29.184Z,13.80
2018-04-10T07:03:31.860Z,14.00
2018-04-10T07:07:34.519Z,14.20
2018-04-10T07:11:37.949Z,14.60
2018-04-10T07:15:40.624Z,14.60
2018-04-10T07:19:43.336Z,14.80
2018-04-10T07:23:46.017Z,14.90
2018-04-10T07:27:48.724Z,15.00
2018-04-10T07:31:51.386Z,15.40
2018-04-10T07:35:54.051Z,16.10
2018-04-10T07:39:56.750Z,17.40
2018-04-10T07:43:59.509Z,18.20
2018-04-10T07:48:02.175Z,19.20
2018-04-10T07:52:04.844Z,19.90
2018-04-10T07:56:07.541Z,20.50
2018-04-10T08:00:10.245Z,21.00
2018-04-10T08:04:12.872Z,21.60
2018-04-10T08:08:15.502Z,22.00
2018-04-10T08:12:18.906Z,22.90
2018-04-10T08:16:21.583Z,22.80
2018-04-10T08:20:24.221Z,23.20
2018-04-10T08:24:26.828Z,23.50
2018-04-10T08:28:29.464Z,24.00
2018-04-10T08:32:32.159Z,24.30
2018-04-10T08:36:34.794Z,24.30
2018-04-10T08:40:37.485Z,23.80
2018-04-10T08:44:40.098Z,23.00
2018-04-10T08:48:42.734Z,22.40
2018-04-10T08:52:46.192Z,21.30
2018-04-10T08:56:48.898Z,21.30
2018-04-10T09:00:51.527Z,21.00
2018-04-10T09:04:54.192Z,20.60
2018-04-10T09:08:56.836Z,20.40
2018-04-10T09:12:59.484Z,20.10
2018-04-10T09:17:02.184Z,19.90
2018-04-10T09:21:04.832Z,19.70
2018-04-10T09:25:07.499Z,19.60
2018-04-10T09:29:10.148Z,19.50
2018-04-10T09:33:13.579Z,19.40
2018-04-10T09:37:16.983Z,19.20
2018-04-10T09:41:20.348Z,19.20
2018-04-10T09:45:22.994Z,19.10
2018-04-10T09:49:25.643Z,19.10
2018-04-10T09:53:28.297Z,19.10
2018-04-10T09:57:30.936Z,19.10
2018-04-10T10:01:33.543Z,19.10
2018-04-10T10:05:36.995Z,19.10
2018-04-10T10:09:39.635Z,19.10
2018-04-10T10:13:43.052Z,19.20
2018-04-10T10:17:45.695Z,19.10
2018-04-10T10:21:48.351Z,19.20
2018-04-10T10:25:50.994Z,19.20
2018-04-10T10:29:54.402Z,19.30
2018-04-10T10:33:57.807Z,19.30
2018-04-10T10:38:01.211Z,19.40
2018-04-10T10:42:04.588Z,19.40
2018-04-10T10:46:07.229Z,19.40
2018-04-10T10:50:09.956Z,19.50
2018-04-10T10:54:12.600Z,19.50
2018-04-10T10:58:15.972Z,19.70
2018-04-10T11:02:20.305Z,19.60
2018-04-10T11:06:23.724Z,19.80
2018-04-10T11:10:27.390Z,19.90
2018-04-10T11:14:30.051Z,19.80
2018-04-10T11:18:32.719Z,20.00
2018-04-10T11:22:36.122Z,20.20
2018-04-10T11:26:39.592Z,20.20
2018-04-10T11:30:42.233Z,20.10
2018-04-10T11:34:44.980Z,20.30
2018-04-10T11:38:47.603Z,20.30
2018-04-10T11:42:51.067Z,20.50
2018-04-10T11:46:53.708Z,20.40
2018-04-10T11:50:57.122Z,20.60
2018-04-10T11:54:59.734Z,20.50
2018-04-10T11:59:02.436Z,20.60
2018-04-10T12:03:05.089Z,20.70
2018-04-10T12:07:07.738Z,20.70
2018-04-10T12:11:10.380Z,20.80
2018-04-10T12:15:12.987Z,20.90
2018-04-10T12:19:15.631Z,21.00
2018-04-10T12:23:19.047Z,21.20
2018-04-10T12:27:21.692Z,21.10
2018-04-10T12:31:24.332Z,21.30
2018-04-10T12:35:26.938Z,21.40
2018-04-10T12:39:29.589Z,21.50
2018-04-10T12:43:32.999Z,21.80
2018-04-10T12:47:35.639Z,21.70
2018-04-10T12:51:38.255Z,21.90
2018-04-10T12:55:41.675Z,22.10
2018-04-10T12:59:45.089Z,22.20
2018-04-10T13:03:47.791Z,22.10
2018-04-10T13:07:50.500Z,22.30
2018-04-10T13:11:53.112Z,22.40
2018-04-10T13:15:55.811Z,22.40
2018-04-10T13:19:58.454Z,22.50
2018-04-10T13:24:01.163Z,22.60
2018-04-10T13:28:03.864Z,22.70
2018-04-10T13:32:06.814Z,22.80
2018-04-10T13:36:09.469Z,22.80
2018-04-10T13:40:12.179Z,22.90
2018-04-10T13:44:14.855Z,22.90
2018-04-10T13:48:18.297Z,23.00
2018-04-10T13:52:21.282Z,23.00
2018-04-10T13:56:23.958Z,23.10
2018-04-10T14:00:27.445Z,23.20
2018-04-10T14:04:30.116Z,23.10
2018-04-10T14:08:32.784Z,23.20
2018-04-10T14:12:35.451Z,23.30
2018-04-10T14:16:38.143Z,23.30
2018-04-10T14:20:40.852Z,23.30
2018-04-10T14:24:43.585Z,23.40
2018-04-10T14:28:46.248Z,23.40
2018-04-10T14:32:48.907Z,23.50
2018-04-10T14:36:51.587Z,23.50
2018-04-10T14:40:54.324Z,23.50
2018-04-10T14:44:56.998Z,23.50
2018-04-10T14:48:59.664Z,23.50
2018-04-10T14:53:02.335Z,23.50
2018-04-10T14:57:05.003Z,23.50
2018-04-10T15:01:08.436Z,23.50
2018-04-10T15:05:11.095Z,23.50
2018-04-10T15:09:14.873Z,23.50
2018-04-10T15:13:17.604Z,23.40
2018-04-10T15:17:21.036Z,23.40
2018-04-10T15:21:23.735Z,23.30
2018-04-10T15:25:26.396Z,23.40
2018-04-10T15:29:29.924Z,23.40
2018-04-10T15:33:32.605Z,23.30
2018-04-10T15:37:35.329Z,23.30
2018-04-10T15:41:37.994Z,23.30
2018-04-10T15:45:40.700Z,23.30
2018-04-10T15:49:43.397Z,23.30
2018-04-10T15:53:46.063Z,23.20
2018-04-10T15:57:48.773Z,23.10
2018-04-10T16:01:51.471Z,23.00
2018-04-10T16:05:55.973Z,22.90
2018-04-10T16:09:58.742Z,22.90
2018-04-10T16:14:02.226Z,22.80
2018-04-10T16:18:04.871Z,22.70
2018-04-10T16:22:07.551Z,22.70
2018-04-10T16:26:10.210Z,22.70
2018-04-10T16:30:13.640Z,22.60
2018-04-10T16:34:16.310Z,22.50
2018-04-10T16:38:19.748Z,22.40
2018-04-10T16:42:22.470Z,22.40
2018-04-10T16:46:25.114Z,22.40
2018-04-10T16:50:27.773Z,22.40
2018-04-10T16:54:30.423Z,22.20
2018-04-10T16:58:33.107Z,22.20
2018-04-10T17:02:35.759Z,22.20
2018-04-10T17:06:39.188Z,22.10
2018-04-10T17:10:41.860Z,22.10
2018-04-10T17:14:44.600Z,22.00
2018-04-10T17:18:47.272Z,22.00
2018-04-10T17:22:49.934Z,21.90
2018-04-10T17:26:52.624Z,21.80
2018-04-10T17:30:55.330Z,21.80
2018-04-10T17:34:58.001Z,21.70
2018-04-10T17:39:00.673Z,21.50
2018-04-10T17:43:04.112Z,21.40
2018-04-10T17:47:06.782Z,21.30
2018-04-10T17:51:09.455Z,21.20
2018-04-10T17:55:12.909Z,21.00
2018-04-10T17:59:15.576Z,21.00
2018-04-10T18:03:18.223Z,20.90
2018-04-10T18:07:20.895Z,20.80
2018-04-10T18:11:23.568Z,20.60
2018-04-10T18:15:26.341Z,20.50
2018-04-10T18:19:29.066Z,20.50
2018-04-10T18:23:31.780Z,20.40
2018-04-10T18:27:35.213Z,20.20
2018-04-10T18:31:37.934Z,20.10
2018-04-10T18:35:40.681Z,20.00
2018-04-10T18:39:43.538Z,19.90
2018-04-10T18:43:47.184Z,19.80
2018-04-10T18:47:49.923Z,19.70
2018-04-10T18:51:52.662Z,19.60
2018-04-10T18:55:55.533Z,19.60
2018-04-10T18:59:58.350Z,19.40
2018-04-10T19:04:01.253Z,19.40
2018-04-10T19:08:04.103Z,19.30
2018-04-10T19:12:07.111Z,19.20
2018-04-10T19:16:09.985Z,19.00
2018-04-10T19:20:12.894Z,19.00
2018-04-10T19:24:16.496Z,18.80
2018-04-10T19:28:20.033Z,18.70
2018-04-10T19:32:22.857Z,18.70
2018-04-10T19:36:26.634Z,18.60
2018-04-10T19:40:29.354Z,18.50
2018-04-10T19:44:32.040Z,18.40
2018-04-10T19:48:34.715Z,18.30
2018-04-10T19:52:37.392Z,18.30
2018-04-10T19:56:40.052Z,18.30
2018-04-10T20:00:42.802Z,18.20
2018-04-10T20:04:45.529Z,18.10
2018-04-10T20:08:48.192Z,18.00
2018-04-10T20:12:50.862Z,18.00
2018-04-10T20:16:53.545Z,17.80
2018-04-10T20:20:56.233Z,17.80
2018-04-10T20:24:59.001Z,17.60
2018-04-10T20:29:01.744Z,17.50
2018-04-10T20:33:04.512Z,17.40
2018-04-10T20:37:07.191Z,17.20
2018-04-10T20:41:10.683Z,17.00
2018-04-10T20:45:13.360Z,17.00
2018-04-10T20:49:16.049Z,16.90
2018-04-10T20:53:18.716Z,16.70
2018-04-10T20:57:21.375Z,16.60
2018-04-10T21:01:24.048Z,16.40
2018-04-10T21:05:27.556Z,16.20
2018-04-10T21:09:31.049Z,16.10
2018-04-10T21:13:33.672Z,16.10
2018-04-10T21:17:36.340Z,16.00
2018-04-10T21:21:39.048Z,15.90
2018-04-10T21:25:41.842Z,15.80
2018-04-10T21:29:44.540Z,15.70
2018-04-10T21:33:47.221Z,15.60
2018-04-10T21:37:49.910Z,15.50
2018-04-10T21:41:52.580Z,15.30
2018-04-10T21:45:56.016Z,15.00
2018-04-10T21:49:58.742Z,14.90
2018-04-10T21:54:02.221Z,14.60
2018-04-10T21:58:04.942Z,14.50
2018-04-10T22:02:07.632Z,14.50
2018-04-10T22:06:10.412Z,14.40
2018-04-10T22:10:13.093Z,14.30
2018-04-10T22:14:15.764Z,14.20
2018-04-10T22:18:18.457Z,14.00
2018-04-10T22:22:21.236Z,13.90
2018-04-10T22:26:23.907Z,13.70
2018-04-10T22:30:26.575Z,13.60
2018-04-10T22:34:29.207Z,13.50
2018-04-10T22:38:31.898Z,13.40
2018-04-10T22:42:34.581Z,13.30
2018-04-10T22:46:37.265Z,13.20
2018-04-10T22:50:39.979Z,13.10
2018-04-10T22:54:42.647Z,12.90
2018-04-10T22:58:45.328Z,12.90
2018-04-10T23:02:47.993Z,12.70
2018-04-10T23:06:50.677Z,12.60
2018-04-10T23:10:54.135Z,12.40
2018-04-10T23:14:56.819Z,12.30
2018-04-10T23:18:59.500Z,12.30
2018-04-10T23:23:02.186Z,12.20
2018-04-10T23:27:04.871Z,12.10
2018-04-10T23:31:07.535Z,12.00
2018-04-10T23:35:10.976Z,11.70
2018-04-10T23:39:13.643Z,11.70
2018-04-10T23:43:17.072Z,11.50
2018-04-10T23:47:19.972Z,11.40
2018-04-10T23:51:22.637Z,11.40
2018-04-10T23:55:26.100Z,11.20
2018-04-10T23:59:28.780Z,11.10
